Terminal Aerodrome Forecast
Issued by NWS

Home | Current Version | Previous Version | Text Only | Print | Product List | Glossary On
Versions: 1 2 3 4 5 6 7 8 9 10 11 12 13 14
000
FTUS44 KHGX 172320
TAFCXO
TAF
KCXO 172320Z 1800/1824 10008KT P6SM SCT035 BKN045 OVC050
     FM180200 VRB03KT P6SM SCT020 BKN050
     FM180600 00000KT 5SM BR OVC050
     FM181100 36004KT 4SM BR SCT015 BKN040
     FM181500 03009KT P6SM SCT045=

USA.gov is the U.S. government's official web portal to all federal, state and local government web resources and services.